Time;durP1;ratioP1;P1;durP2;ratioP2;P2;SDS_P1;SDS_P2;PMS_P1;PMS_P2;Temp;Humidity;BMP_temperature;BMP_pressure;BME280_temperature;BME280_humidity;BME280_pressure;Samples;Min_cycle;Max_cycle;Signal;HPM_P1;HPM_P2
2023/05/09 00:00:24;;;;;;;;;;;14.90;99.90;;;;;;4895045;29;19976;-68
2023/05/09 00:02:50;;;;;;;;;;;15.00;99.90;;;;;;4911404;29;19934;-69
2023/05/09 00:05:16;;;;;;;;;;;14.90;99.90;;;;;;4910990;29;19982;-70
2023/05/09 00:07:41;;;;;;;;;;;14.90;99.90;;;;;;4911567;29;19982;-68
2023/05/09 00:10:07;;;;;;;;;;;14.90;99.90;;;;;;4895597;29;19979;-68
2023/05/09 00:12:33;;;;;;;;;;;15.00;99.90;;;;;;4911019;29;19988;-68
2023/05/09 00:14:58;;;;;;;;;;;14.90;99.90;;;;;;4896603;29;19928;-68
2023/05/09 00:17:24;;;;;;;;;;;15.00;99.90;;;;;;4895378;29;19927;-69
2023/05/09 00:19:50;;;;;;;;;;;14.90;99.90;;;;;;4895739;29;19928;-69
2023/05/09 00:22:16;;;;;;;;;;;14.90;99.90;;;;;;4880000;29;19939;-73
2023/05/09 00:24:42;;;;;;;;;;;14.90;99.90;;;;;;4881927;29;19979;-68
2023/05/09 00:27:08;;;;;;;;;;;15.00;99.90;;;;;;4898878;29;19932;-68
2023/05/09 00:29:34;;;;;;;;;;;15.00;99.90;;;;;;4883035;29;19934;-68
2023/05/09 00:31:59;;;;;;;;;;;15.00;99.90;;;;;;4899050;29;19928;-69
2023/05/09 00:34:25;;;;;;;;;;;15.00;99.90;;;;;;4882742;29;19931;-68
2023/05/09 00:36:51;;;;;;;;;;;15.00;99.90;;;;;;4898640;29;20305;-68
2023/05/09 00:39:16;;;;;;;;;;;15.00;99.90;;;;;;4898686;29;20036;-69
2023/05/09 00:41:42;;;;;;;;;;;15.00;99.90;;;;;;4899155;29;19933;-69
2023/05/09 00:44:07;;;;;;;;;;;15.50;99.90;;;;;;4914249;29;19935;-69
2023/05/09 00:46:33;;;;;;;;;;;14.90;99.90;;;;;;4899230;29;19927;-70
2023/05/09 00:48:59;;;;;;;;;;;14.90;99.90;;;;;;4882089;29;20033;-68
2023/05/09 00:51:24;;;;;;;;;;;14.90;99.90;;;;;;4898088;29;19933;-68
2023/05/09 00:53:50;;;;;;;;;;;14.90;99.90;;;;;;4914261;29;20285;-68
2023/05/09 00:56:16;;;;;;;;;;;15.00;99.90;;;;;;4913268;29;19935;-69
2023/05/09 00:58:41;;;;;;;;;;;14.90;99.90;;;;;;4898794;29;19931;-68
2023/05/09 01:01:07;;;;;;;;;;;14.90;99.90;;;;;;4912687;29;19927;-69
2023/05/09 01:03:34;;;;;;;;;;;14.90;99.90;;;;;;4913529;29;20068;-69
2023/05/09 01:06:26;;;;;;;;;;;14.90;99.90;;;;;;4913880;29;20055;-69
2023/05/09 01:08:55;;;;;;;;;;;14.90;99.90;;;;;;4883356;29;19988;-70
2023/05/09 01:11:26;;;;;;;;;;;14.80;99.90;;;;;;4913786;29;19927;-68
2023/05/09 01:14:10;;;;;;;;;;;14.80;99.90;;;;;;4913927;29;20013;-68
2023/05/09 01:16:42;;;;;;;;;;;14.80;99.90;;;;;;4912251;29;20633;-69
2023/05/09 01:19:20;;;;;;;;;;;14.70;99.90;;;;;;4913737;29;19935;-70
2023/05/09 01:21:47;;;;;;;;;;;14.70;99.90;;;;;;4913351;29;19997;-69
2023/05/09 01:24:13;;;;;;;;;;;14.70;99.90;;;;;;4898821;29;19971;-69
2023/05/09 01:26:51;;;;;;;;;;;14.70;99.90;;;;;;4913074;29;19978;-69
2023/05/09 01:29:35;;;;;;;;;;;14.70;99.90;;;;;;4897802;29;19931;-68
2023/05/09 01:32:02;;;;;;;;;;;14.70;99.90;;;;;;4913576;29;19934;-69
2023/05/09 01:34:29;;;;;;;;;;;14.70;99.90;;;;;;4898314;29;19989;-69
2023/05/09 01:36:57;;;;;;;;;;;14.80;99.90;;;;;;4912330;29;20397;-69
2023/05/09 01:39:24;;;;;;;;;;;14.80;99.90;;;;;;4897550;29;20485;-69
2023/05/09 01:41:52;;;;;;;;;;;14.80;99.90;;;;;;4881731;29;19987;-69
2023/05/09 01:44:19;;;;;;;;;;;14.80;99.90;;;;;;4897183;29;19934;-69
2023/05/09 01:46:45;;;;;;;;;;;14.80;99.90;;;;;;4897201;29;19928;-69
2023/05/09 01:49:10;;;;;;;;;;;14.80;99.90;;;;;;4913156;29;20017;-68
2023/05/09 01:51:37;;;;;;;;;;;14.70;99.90;;;;;;4897101;29;19928;-70
2023/05/09 01:54:03;;;;;;;;;;;14.80;99.90;;;;;;4913156;29;20289;-70
2023/05/09 01:56:30;;;;;;;;;;;14.70;99.90;;;;;;4897429;29;20396;-70
2023/05/09 01:58:56;;;;;;;;;;;14.70;99.90;;;;;;4912769;29;19932;-70
2023/05/09 02:01:22;;;;;;;;;;;14.80;99.90;;;;;;4897746;29;19927;-70
2023/05/09 02:03:51;;;;;;;;;;;14.80;99.90;;;;;;4896671;29;19928;-70
2023/05/09 02:06:18;;;;;;;;;;;14.70;99.90;;;;;;4896947;29;19928;-70
2023/05/09 02:08:44;;;;;;;;;;;14.70;99.90;;;;;;4896966;29;20379;-70
2023/05/09 02:11:09;;;;;;;;;;;14.70;99.90;;;;;;4897268;29;19934;-70
2023/05/09 02:13:37;;;;;;;;;;;14.70;99.90;;;;;;4912452;29;19931;-70
2023/05/09 02:16:03;;;;;;;;;;;14.80;99.90;;;;;;4897035;29;19985;-70
2023/05/09 02:18:28;;;;;;;;;;;14.70;99.90;;;;;;4896672;29;19951;-70
2023/05/09 02:20:54;;;;;;;;;;;14.80;99.90;;;;;;4912045;29;19924;-70
2023/05/09 02:23:19;;;;;;;;;;;14.80;99.90;;;;;;4881158;29;20315;-70
2023/05/09 02:25:45;;;;;;;;;;;14.80;99.90;;;;;;4896597;29;19931;-70
2023/05/09 02:28:11;;;;;;;;;;;14.80;99.90;;;;;;4881215;29;19927;-70
2023/05/09 02:30:41;;;;;;;;;;;14.70;99.90;;;;;;4880182;29;20274;-71
2023/05/09 02:33:08;;;;;;;;;;;14.80;99.90;;;;;;4897832;29;20330;-70
2023/05/09 02:35:34;;;;;;;;;;;14.70;99.90;;;;;;4897668;29;19928;-70
2023/05/09 02:38:00;;;;;;;;;;;14.80;99.90;;;;;;4896418;29;19951;-70
2023/05/09 02:40:28;;;;;;;;;;;14.80;99.90;;;;;;4880972;29;19931;-70
2023/05/09 02:42:53;;;;;;;;;;;14.80;99.90;;;;;;4895714;29;20014;-70
2023/05/09 02:45:19;;;;;;;;;;;14.80;99.90;;;;;;4897547;29;19976;-70
2023/05/09 02:47:45;;;;;;;;;;;14.80;99.90;;;;;;4880544;29;20007;-70
2023/05/09 02:50:10;;;;;;;;;;;14.70;99.90;;;;;;4897410;29;20434;-70
2023/05/09 02:52:36;;;;;;;;;;;14.80;99.90;;;;;;4896291;29;20023;-70
2023/05/09 02:55:02;;;;;;;;;;;14.70;99.90;;;;;;4911761;29;19934;-70
2023/05/09 02:57:27;;;;;;;;;;;14.70;99.90;;;;;;4897361;29;19927;-70
2023/05/09 02:59:53;;;;;;;;;;;14.80;99.90;;;;;;4911538;29;19935;-70
2023/05/09 03:02:19;;;;;;;;;;;14.70;99.90;;;;;;4896195;29;19934;-70
2023/05/09 03:04:44;;;;;;;;;;;14.70;99.90;;;;;;4895285;29;19935;-70
2023/05/09 03:07:10;;;;;;;;;;;14.70;99.90;;;;;;4911762;29;19931;-70
2023/05/09 03:09:36;;;;;;;;;;;14.70;99.90;;;;;;4911733;29;19938;-69
2023/05/09 03:12:02;;;;;;;;;;;14.70;99.90;;;;;;4880062;29;19929;-70
2023/05/09 03:14:28;;;;;;;;;;;14.70;99.90;;;;;;4880439;29;19934;-70
2023/05/09 03:16:53;;;;;;;;;;;14.70;99.90;;;;;;4911308;29;19928;-70
2023/05/09 03:19:19;;;;;;;;;;;14.70;99.90;;;;;;4895987;29;19931;-70
2023/05/09 03:21:45;;;;;;;;;;;14.70;99.90;;;;;;4896470;29;20291;-71
2023/05/09 03:24:10;;;;;;;;;;;14.70;99.90;;;;;;4864732;29;19928;-70
2023/05/09 03:26:36;;;;;;;;;;;14.70;99.90;;;;;;4896986;29;19939;-70
2023/05/09 03:29:01;;;;;;;;;;;14.70;99.90;;;;;;4911459;29;19927;-70
2023/05/09 03:31:27;;;;;;;;;;;14.70;99.90;;;;;;4895719;29;19928;-70
2023/05/09 03:33:53;;;;;;;;;;;14.70;99.90;;;;;;4910922;29;20022;-69
2023/05/09 03:36:19;;;;;;;;;;;14.70;99.90;;;;;;4895846;29;20366;-68
2023/05/09 03:38:44;;;;;;;;;;;14.70;99.90;;;;;;4895887;29;20401;-68
2023/05/09 03:41:11;;;;;;;;;;;14.70;99.90;;;;;;4896634;29;20382;-69
2023/05/09 03:43:37;;;;;;;;;;;14.70;99.90;;;;;;4896756;29;19931;-69
2023/05/09 03:46:02;;;;;;;;;;;14.80;99.90;;;;;;4895403;29;19927;-69
2023/05/09 03:48:28;;;;;;;;;;;14.70;99.90;;;;;;4911609;29;19928;-69
2023/05/09 03:50:54;;;;;;;;;;;14.70;99.90;;;;;;4895583;29;20373;-69
2023/05/09 03:53:19;;;;;;;;;;;14.70;99.90;;;;;;4896806;29;19938;-69
2023/05/09 03:55:45;;;;;;;;;;;14.70;99.90;;;;;;4895656;29;19932;-69
2023/05/09 03:58:10;;;;;;;;;;;14.70;99.90;;;;;;4895545;29;19934;-69
2023/05/09 04:00:36;;;;;;;;;;;14.70;99.90;;;;;;4898285;29;19928;-68
2023/05/09 04:03:02;;;;;;;;;;;14.70;99.90;;;;;;4899796;29;19993;-69
2023/05/09 04:05:28;;;;;;;;;;;14.70;99.90;;;;;;4898699;29;19928;-70
2023/05/09 04:07:54;;;;;;;;;;;14.70;99.90;;;;;;4914498;29;20071;-70
2023/05/09 04:10:19;;;;;;;;;;;14.70;99.90;;;;;;4899762;29;19927;-69
2023/05/09 04:12:45;;;;;;;;;;;14.70;99.90;;;;;;4882858;29;20398;-69
2023/05/09 04:15:10;;;;;;;;;;;14.70;99.90;;;;;;4899299;29;19924;-69
2023/05/09 04:17:36;;;;;;;;;;;14.70;99.90;;;;;;4867850;29;19950;-70
2023/05/09 04:20:02;;;;;;;;;;;14.70;99.90;;;;;;4899674;29;20014;-70
2023/05/09 04:22:27;;;;;;;;;;;14.70;99.90;;;;;;4898503;29;19935;-70
2023/05/09 04:24:53;;;;;;;;;;;14.70;99.90;;;;;;4898373;29;19934;-69
2023/05/09 04:27:18;;;;;;;;;;;14.90;99.90;;;;;;4898678;29;19927;-69
2023/05/09 04:29:44;;;;;;;;;;;14.70;99.90;;;;;;4899954;29;19927;-70
2023/05/09 04:32:10;;;;;;;;;;;14.70;99.90;;;;;;4914019;29;20370;-69
2023/05/09 04:34:36;;;;;;;;;;;14.70;99.90;;;;;;4914422;29;19938;-69
2023/05/09 04:37:01;;;;;;;;;;;14.70;99.90;;;;;;4913866;29;19928;-69
2023/05/09 04:39:27;;;;;;;;;;;14.80;99.90;;;;;;4914293;29;19927;-70
2023/05/09 04:41:53;;;;;;;;;;;14.70;99.90;;;;;;4899325;29;19927;-69
2023/05/09 04:44:18;;;;;;;;;;;14.70;99.90;;;;;;4882204;29;19927;-70
2023/05/09 04:46:44;;;;;;;;;;;14.70;99.90;;;;;;4899517;29;19928;-72
2023/05/09 04:49:09;;;;;;;;;;;14.80;99.90;;;;;;4898144;29;19928;-70
2023/05/09 04:51:35;;;;;;;;;;;14.70;99.90;;;;;;4882947;29;19950;-70
2023/05/09 04:54:00;;;;;;;;;;;14.70;99.90;;;;;;4898818;29;20034;-70
2023/05/09 04:56:26;;;;;;;;;;;14.80;99.90;;;;;;4899285;29;19934;-71
2023/05/09 04:58:52;;;;;;;;;;;14.70;99.90;;;;;;4897957;29;20022;-70
2023/05/09 05:01:17;;;;;;;;;;;14.80;99.90;;;;;;4913280;29;20071;-69
2023/05/09 05:03:43;;;;;;;;;;;14.80;99.90;;;;;;4899166;29;20495;-69
2023/05/09 05:06:08;;;;;;;;;;;14.90;99.90;;;;;;4897879;29;20436;-69
2023/05/09 05:08:34;;;;;;;;;;;14.90;99.90;;;;;;4898436;29;19935;-69
2023/05/09 05:11:00;;;;;;;;;;;14.90;99.90;;;;;;4897793;29;19972;-69
2023/05/09 05:13:25;;;;;;;;;;;15.00;99.90;;;;;;4899048;29;19966;-69
2023/05/09 05:15:51;;;;;;;;;;;15.10;99.90;;;;;;4897569;29;19935;-69
2023/05/09 05:18:17;;;;;;;;;;;15.00;99.90;;;;;;4913249;29;19995;-71
2023/05/09 05:20:42;;;;;;;;;;;15.10;99.90;;;;;;4897544;29;19933;-72
2023/05/09 05:23:08;;;;;;;;;;;15.10;99.90;;;;;;4898623;29;19983;-73
2023/05/09 05:25:33;;;;;;;;;;;15.10;99.90;;;;;;4897721;29;19927;-73
2023/05/09 05:27:59;;;;;;;;;;;15.20;99.90;;;;;;4882636;29;19928;-72
2023/05/09 05:30:25;;;;;;;;;;;15.10;99.90;;;;;;4897515;29;19995;-71
2023/05/09 05:32:50;;;;;;;;;;;15.20;99.90;;;;;;4898969;29;20314;-72
2023/05/09 05:35:16;;;;;;;;;;;15.20;99.90;;;;;;4882000;29;20286;-73
2023/05/09 05:37:43;;;;;;;;;;;15.20;99.90;;;;;;4882273;29;20441;-73
2023/05/09 05:40:09;;;;;;;;;;;15.20;99.90;;;;;;4897546;29;19985;-72
2023/05/09 05:42:34;;;;;;;;;;;15.30;99.90;;;;;;4897579;29;19971;-73
2023/05/09 05:45:03;;;;;;;;;;;15.20;99.90;;;;;;4898780;29;19927;-74
2023/05/09 05:47:32;;;;;;;;;;;15.20;99.90;;;;;;4897568;29;19927;-72
2023/05/09 05:49:58;;;;;;;;;;;15.10;99.90;;;;;;4898621;29;19927;-74
2023/05/09 05:52:25;;;;;;;;;;;15.20;99.90;;;;;;4912686;29;19973;-71
2023/05/09 05:54:51;;;;;;;;;;;15.20;99.90;;;;;;4898615;29;20308;-72
2023/05/09 05:57:16;;;;;;;;;;;15.20;99.90;;;;;;4897979;29;19927;-71
2023/05/09 05:59:42;;;;;;;;;;;15.10;99.90;;;;;;4881462;29;19974;-71
2023/05/09 06:02:07;;;;;;;;;;;15.10;99.90;;;;;;4897920;29;19950;-70
2023/05/09 06:04:33;;;;;;;;;;;15.10;99.90;;;;;;4881289;29;19927;-72
2023/05/09 06:06:58;;;;;;;;;;;15.10;99.90;;;;;;4881433;29;19987;-71
2023/05/09 06:09:24;;;;;;;;;;;15.10;99.90;;;;;;4896583;29;20313;-70
2023/05/09 06:11:50;;;;;;;;;;;15.10;99.90;;;;;;4898068;29;19938;-74
2023/05/09 06:14:16;;;;;;;;;;;15.10;99.90;;;;;;4880929;29;19975;-72
2023/05/09 06:16:41;;;;;;;;;;;15.00;99.90;;;;;;4897194;29;19927;-73
2023/05/09 06:19:07;;;;;;;;;;;15.10;99.90;;;;;;4881499;29;20441;-73
2023/05/09 06:21:33;;;;;;;;;;;15.10;99.90;;;;;;4912220;29;19927;-74
2023/05/09 06:23:58;;;;;;;;;;;15.10;99.90;;;;;;4896924;29;19966;-73
2023/05/09 06:26:25;;;;;;;;;;;15.10;99.90;;;;;;4897367;29;19978;-73
2023/05/09 06:28:50;;;;;;;;;;;15.20;99.90;;;;;;4881144;29;19982;-74
2023/05/09 06:31:16;;;;;;;;;;;15.20;99.90;;;;;;4897364;29;19927;-73
2023/05/09 06:33:41;;;;;;;;;;;15.20;99.90;;;;;;4896989;29;19927;-74
2023/05/09 06:36:07;;;;;;;;;;;15.30;99.90;;;;;;4896837;29;19928;-73
2023/05/09 06:38:33;;;;;;;;;;;15.30;99.90;;;;;;4911820;29;19997;-72
2023/05/09 06:40:59;;;;;;;;;;;15.40;99.90;;;;;;4896669;29;20027;-72
2023/05/09 06:43:25;;;;;;;;;;;15.40;99.90;;;;;;4895859;29;20026;-73
2023/05/09 06:45:50;;;;;;;;;;;15.30;99.90;;;;;;4896423;29;19998;-73
2023/05/09 06:48:16;;;;;;;;;;;15.30;99.90;;;;;;4897249;29;19927;-71
2023/05/09 06:50:41;;;;;;;;;;;15.40;99.90;;;;;;4880840;29;20370;-73
2023/05/09 06:53:07;;;;;;;;;;;15.40;99.90;;;;;;4911995;29;20022;-71
2023/05/09 06:55:33;;;;;;;;;;;15.50;99.90;;;;;;4896555;29;19949;-73
2023/05/09 06:57:59;;;;;;;;;;;15.40;99.90;;;;;;4896162;29;19978;-73
2023/05/09 07:00:24;;;;;;;;;;;15.40;99.90;;;;;;4895475;29;19954;-73
2023/05/09 07:02:50;;;;;;;;;;;15.50;99.90;;;;;;4897474;29;20075;-70
2023/05/09 07:05:16;;;;;;;;;;;15.50;99.90;;;;;;4880591;29;19931;-72
2023/05/09 07:07:41;;;;;;;;;;;15.60;99.90;;;;;;4880378;29;19975;-73
2023/05/09 07:10:07;;;;;;;;;;;15.50;99.90;;;;;;4896290;29;19945;-73
2023/05/09 07:12:33;;;;;;;;;;;15.50;99.90;;;;;;4896872;29;20022;-72
2023/05/09 07:14:58;;;;;;;;;;;15.50;99.90;;;;;;4896268;29;19947;-71
2023/05/09 07:17:24;;;;;;;;;;;15.50;99.90;;;;;;4896965;29;20080;-72
2023/05/09 07:19:50;;;;;;;;;;;15.50;99.90;;;;;;4896226;29;20490;-71
2023/05/09 07:22:15;;;;;;;;;;;15.50;99.90;;;;;;4897002;29;19931;-71
2023/05/09 07:24:43;;;;;;;;;;;15.50;99.90;;;;;;4896402;29;20027;-73
2023/05/09 07:27:08;;;;;;;;;;;15.60;99.90;;;;;;4897178;29;19927;-72
2023/05/09 07:29:34;;;;;;;;;;;15.60;99.90;;;;;;4879787;29;19928;-72
2023/05/09 07:32:00;;;;;;;;;;;15.60;99.90;;;;;;4896007;29;19928;-72
2023/05/09 07:34:25;;;;;;;;;;;15.70;99.90;;;;;;4882401;29;19938;-73
2023/05/09 07:36:51;;;;;;;;;;;15.70;99.90;;;;;;4900132;29;19950;-71
2023/05/09 07:39:16;;;;;;;;;;;15.70;99.90;;;;;;4900963;29;19934;-72
2023/05/09 07:41:42;;;;;;;;;;;15.70;99.90;;;;;;4915323;29;19928;-73
2023/05/09 07:44:08;;;;;;;;;;;15.80;99.90;;;;;;4900909;29;19931;-72
2023/05/09 07:46:39;;;;;;;;;;;15.80;99.90;;;;;;4900490;29;19927;-71
2023/05/09 07:49:04;;;;;;;;;;;15.90;99.90;;;;;;4900767;29;19928;-72
2023/05/09 07:51:31;;;;;;;;;;;15.90;99.90;;;;;;4900336;29;20389;-72
2023/05/09 07:53:56;;;;;;;;;;;16.00;99.90;;;;;;4897440;29;19932;-73
2023/05/09 07:56:22;;;;;;;;;;;16.00;99.90;;;;;;4882396;29;19928;-73
2023/05/09 07:58:48;;;;;;;;;;;16.10;99.90;;;;;;4897756;29;19979;-71
2023/05/09 08:01:14;;;;;;;;;;;16.10;99.90;;;;;;4896941;29;19928;-74
2023/05/09 08:03:40;;;;;;;;;;;16.10;99.90;;;;;;4882915;29;19988;-71
2023/05/09 08:06:06;;;;;;;;;;;16.20;99.90;;;;;;4900084;29;19931;-74
2023/05/09 08:08:31;;;;;;;;;;;16.20;99.90;;;;;;4898490;29;19934;-73
2023/05/09 08:10:57;;;;;;;;;;;16.20;99.90;;;;;;4914517;29;19979;-73
2023/05/09 08:13:22;;;;;;;;;;;16.20;99.90;;;;;;4899940;29;19928;-70
2023/05/09 08:15:48;;;;;;;;;;;16.20;99.90;;;;;;4914430;29;19932;-72
2023/05/09 08:18:14;;;;;;;;;;;16.20;99.90;;;;;;4899778;29;19927;-72
2023/05/09 08:20:39;;;;;;;;;;;16.30;99.90;;;;;;4914111;29;19934;-71
2023/05/09 08:23:05;;;;;;;;;;;16.40;99.90;;;;;;4883231;29;19941;-71
2023/05/09 08:25:31;;;;;;;;;;;16.40;99.90;;;;;;4898471;29;19960;-74
2023/05/09 08:27:57;;;;;;;;;;;16.40;99.90;;;;;;4883207;29;19928;-74
2023/05/09 08:30:23;;;;;;;;;;;16.50;99.90;;;;;;4898323;29;19928;-73
2023/05/09 08:32:48;;;;;;;;;;;16.50;99.90;;;;;;4882886;29;19969;-73
2023/05/09 08:35:14;;;;;;;;;;;16.40;99.90;;;;;;4899714;29;20363;-73
2023/05/09 08:37:40;;;;;;;;;;;16.40;99.90;;;;;;4914067;29;19928;-75
2023/05/09 08:40:06;;;;;;;;;;;16.50;99.90;;;;;;4900119;29;19986;-74
2023/05/09 08:42:34;;;;;;;;;;;16.40;99.90;;;;;;4914527;29;20031;-75
2023/05/09 08:45:05;;;;;;;;;;;16.50;99.90;;;;;;4897060;29;19932;-74
2023/05/09 08:47:34;;;;;;;;;;;16.50;99.90;;;;;;4898500;29;20350;-70
2023/05/09 08:50:01;;;;;;;;;;;16.50;99.90;;;;;;4882958;29;20366;-70
2023/05/09 08:52:28;;;;;;;;;;;16.50;99.90;;;;;;4899378;29;20303;-70
2023/05/09 08:54:54;;;;;;;;;;;16.60;99.90;;;;;;4899261;29;19935;-71
2023/05/09 08:57:20;;;;;;;;;;;16.60;99.90;;;;;;4898365;29;20359;-70
2023/05/09 08:59:48;;;;;;;;;;;16.60;99.90;;;;;;4898906;29;19935;-73
2023/05/09 09:02:13;;;;;;;;;;;16.60;99.90;;;;;;4898128;29;20018;-73
2023/05/09 09:04:39;;;;;;;;;;;16.60;99.90;;;;;;4897825;29;19991;-71
2023/05/09 09:07:05;;;;;;;;;;;16.70;99.90;;;;;;4899313;29;19937;-71
2023/05/09 09:09:31;;;;;;;;;;;16.80;99.90;;;;;;4881530;29;19927;-69
2023/05/09 09:11:57;;;;;;;;;;;16.80;99.90;;;;;;4898933;29;19927;-72
2023/05/09 09:14:24;;;;;;;;;;;16.80;99.90;;;;;;4899298;29;19955;-68
2023/05/09 09:16:51;;;;;;;;;;;16.90;99.90;;;;;;4881717;29;19956;-72
2023/05/09 09:19:17;;;;;;;;;;;16.90;99.90;;;;;;4882505;29;19928;-71
2023/05/09 09:21:48;;;;;;;;;;;17.00;99.90;;;;;;4898663;29;19977;-71
2023/05/09 09:24:15;;;;;;;;;;;17.10;99.90;;;;;;4897454;29;19979;-73
2023/05/09 09:26:45;;;;;;;;;;;17.20;99.90;;;;;;4898620;29;19928;-72
2023/05/09 09:29:11;;;;;;;;;;;17.30;99.90;;;;;;4897595;29;19974;-72
2023/05/09 09:31:36;;;;;;;;;;;17.30;99.90;;;;;;4897423;29;19935;-73
2023/05/09 09:34:02;;;;;;;;;;;17.30;99.90;;;;;;4866641;29;19950;-72
2023/05/09 09:36:31;;;;;;;;;;;17.30;99.90;;;;;;4898725;29;19927;-72
2023/05/09 09:38:59;;;;;;;;;;;17.30;99.90;;;;;;4897061;29;19941;-72
2023/05/09 09:41:34;;;;;;;;;;;17.40;99.90;;;;;;4881813;29;20394;-72
2023/05/09 09:44:11;;;;;;;;;;;17.40;99.90;;;;;;4898326;29;19928;-71
2023/05/09 09:46:40;;;;;;;;;;;17.40;99.90;;;;;;4897851;29;20083;-68
2023/05/09 09:49:08;;;;;;;;;;;17.40;99.90;;;;;;4897573;29;20026;-75
2023/05/09 09:51:33;;;;;;;;;;;17.50;99.90;;;;;;4898529;29;19928;-75
2023/05/09 09:54:00;;;;;;;;;;;17.50;99.90;;;;;;4898082;29;19950;-72
2023/05/09 09:56:39;;;;;;;;;;;17.50;99.90;;;;;;4897039;29;20025;-73
2023/05/09 09:59:10;;;;;;;;;;;17.50;99.90;;;;;;4897156;29;19928;-72
2023/05/09 10:01:51;;;;;;;;;;;17.50;99.90;;;;;;4898062;29;20317;-73
2023/05/09 10:04:17;;;;;;;;;;;17.60;99.90;;;;;;4898466;29;20379;-73
2023/05/09 10:06:50;;;;;;;;;;;17.50;99.90;;;;;;4912113;29;19934;-73
2023/05/09 10:09:16;;;;;;;;;;;17.50;99.90;;;;;;4897629;29;19932;-73
2023/05/09 10:11:41;;;;;;;;;;;17.40;99.90;;;;;;4896922;29;19927;-69
2023/05/09 10:14:07;;;;;;;;;;;17.30;99.90;;;;;;4896716;29;19934;-74
2023/05/09 10:16:32;;;;;;;;;;;17.40;99.90;;;;;;4897342;29;20022;-73
2023/05/09 10:18:58;;;;;;;;;;;17.50;99.90;;;;;;4881073;29;20389;-74
2023/05/09 10:21:24;;;;;;;;;;;17.50;99.90;;;;;;4897928;29;19928;-72
2023/05/09 10:23:51;;;;;;;;;;;17.60;99.90;;;;;;4897264;29;19975;-70
2023/05/09 10:26:19;;;;;;;;;;;17.60;99.90;;;;;;4897802;29;19951;-73
2023/05/09 10:28:46;;;;;;;;;;;17.70;99.90;;;;;;4896380;29;19932;-70
2023/05/09 10:31:20;;;;;;;;;;;17.70;99.90;;;;;;4896821;29;19928;-72
2023/05/09 10:33:47;;;;;;;;;;;17.70;99.90;;;;;;4896525;29;20010;-71
2023/05/09 10:36:17;;;;;;;;;;;17.80;99.90;;;;;;4896728;29;19952;-73
2023/05/09 10:38:43;;;;;;;;;;;17.90;99.90;;;;;;4897328;29;20247;-71
2023/05/09 10:41:09;;;;;;;;;;;17.90;99.90;;;;;;4897124;29;20062;-73
2023/05/09 10:43:35;;;;;;;;;;;18.10;99.90;;;;;;4897264;29;20102;-71
2023/05/09 10:46:02;;;;;;;;;;;18.20;99.90;;;;;;4880154;29;19927;-73
2023/05/09 10:48:27;;;;;;;;;;;18.20;99.90;;;;;;4896307;29;19928;-71
2023/05/09 10:50:53;;;;;;;;;;;18.30;99.90;;;;;;4896113;29;20058;-72
2023/05/09 10:53:22;;;;;;;;;;;18.30;99.90;;;;;;4897324;29;19934;-72
2023/05/09 10:55:50;;;;;;;;;;;18.40;99.90;;;;;;4895728;29;20028;-70
2023/05/09 10:58:26;;;;;;;;;;;18.50;99.90;;;;;;4897040;29;19938;-71
2023/05/09 11:00:53;;;;;;;;;;;18.40;99.90;;;;;;4896659;29;19928;-72
2023/05/09 11:03:19;;;;;;;;;;;18.60;99.90;;;;;;4894634;29;20258;-71
2023/05/09 11:05:46;;;;;;;;;;;18.70;99.90;;;;;;4897181;29;19927;-72
2023/05/09 11:08:20;;;;;;;;;;;18.70;99.90;;;;;;4896701;29;20262;-72
2023/05/09 11:10:46;;;;;;;;;;;18.70;99.90;;;;;;4911668;29;20111;-71
2023/05/09 11:13:12;;;;;;;;;;;18.60;99.90;;;;;;4896291;29;20480;-72
2023/05/09 11:15:57;;;;;;;;;;;18.60;99.90;;;;;;4865010;29;19934;-71
2023/05/09 11:18:23;;;;;;;;;;;18.70;99.90;;;;;;4874989;29;20026;-71
2023/05/09 11:20:50;;;;;;;;;;;18.70;99.90;;;;;;4895125;29;19978;-70
2023/05/09 11:23:17;;;;;;;;;;;18.70;99.90;;;;;;4911465;29;20034;-75
2023/05/09 11:25:44;;;;;;;;;;;18.80;99.90;;;;;;4897297;29;20457;-73
2023/05/09 11:28:24;;;;;;;;;;;18.80;99.90;;;;;;4897484;29;20607;-73
2023/05/09 11:30:49;;;;;;;;;;;18.80;99.90;;;;;;4896676;29;19967;-77
2023/05/09 11:33:22;;;;;;;;;;;18.80;99.90;;;;;;4912402;29;19939;-75
2023/05/09 11:36:08;;;;;;;;;;;18.80;99.90;;;;;;4896631;29;19928;-74
2023/05/09 11:38:41;;;;;;;;;;;18.70;99.90;;;;;;4896207;29;19928;-76
2023/05/09 11:41:07;;;;;;;;;;;18.60;99.90;;;;;;4896258;29;20015;-73
2023/05/09 11:43:34;;;;;;;;;;;18.60;99.90;;;;;;4880521;29;20323;-74
2023/05/09 11:45:59;;;;;;;;;;;18.60;99.90;;;;;;4895834;29;19987;-73
2023/05/09 11:48:25;;;;;;;;;;;18.60;99.90;;;;;;4896581;29;19931;-73
2023/05/09 11:50:50;;;;;;;;;;;18.50;99.90;;;;;;4897457;29;19935;-74
2023/05/09 11:53:16;;;;;;;;;;;18.60;99.90;;;;;;4880239;29;19927;-76
2023/05/09 11:55:41;;;;;;;;;;;18.70;99.90;;;;;;4880672;29;19934;-73
2023/05/09 11:58:08;;;;;;;;;;;18.70;99.90;;;;;;4911835;29;19928;-73
2023/05/09 12:00:36;;;;;;;;;;;18.90;99.90;;;;;;4896364;29;19934;-73
2023/05/09 12:03:04;;;;;;;;;;;18.90;99.90;;;;;;4865053;29;19928;-73
2023/05/09 12:05:30;;;;;;;;;;;19.10;99.90;;;;;;4911516;29;20298;-72
2023/05/09 12:08:01;;;;;;;;;;;19.10;99.90;;;;;;4880095;29;19978;-71
2023/05/09 12:10:27;;;;;;;;;;;19.20;99.90;;;;;;4911110;29;19982;-72
2023/05/09 12:12:55;;;;;;;;;;;19.20;99.90;;;;;;4896013;29;19935;-73
2023/05/09 12:15:21;;;;;;;;;;;19.30;99.90;;;;;;4895731;29;20121;-74
2023/05/09 12:17:59;;;;;;;;;;;19.30;99.90;;;;;;4896028;29;20003;-72
2023/05/09 12:20:24;;;;;;;;;;;19.40;99.90;;;;;;4898679;29;19938;-72
2023/05/09 12:22:53;;;;;;;;;;;19.40;99.90;;;;;;4914836;29;19927;-72
2023/05/09 12:25:19;;;;;;;;;;;19.50;99.90;;;;;;4898795;29;19934;-72
2023/05/09 12:27:44;;;;;;;;;;;19.60;99.90;;;;;;4915033;29;20286;-74
2023/05/09 12:30:12;;;;;;;;;;;19.60;99.90;;;;;;4899936;29;19991;-76
2023/05/09 12:32:38;;;;;;;;;;;19.60;99.90;;;;;;4883654;29;19927;-75
2023/05/09 12:35:09;;;;;;;;;;;19.70;99.90;;;;;;4899164;29;19934;-75
2023/05/09 12:37:34;;;;;;;;;;;19.70;99.90;;;;;;4899284;29;19927;-75
2023/05/09 12:40:11;;;;;;;;;;;19.70;99.90;;;;;;4898825;29;19951;-73
2023/05/09 12:42:37;;;;;;;;;;;19.70;99.90;;;;;;4899485;29;19934;-75
2023/05/09 12:45:03;;;;;;;;;;;19.80;99.90;;;;;;4898700;29;20026;-74
2023/05/09 12:47:30;;;;;;;;;;;19.80;99.90;;;;;;4899005;29;19931;-76
2023/05/09 12:49:56;;;;;;;;;;;19.70;99.90;;;;;;4899868;29;20026;-76
2023/05/09 12:52:22;;;;;;;;;;;19.70;99.90;;;;;;4903097;29;19928;-75
2023/05/09 12:54:48;;;;;;;;;;;19.80;99.90;;;;;;4892640;29;19974;-75
2023/05/09 12:57:21;;;;;;;;;;;19.80;99.90;;;;;;4899834;29;19984;-72
2023/05/09 12:59:47;;;;;;;;;;;19.80;99.90;;;;;;4899454;29;19935;-72
2023/05/09 13:02:13;;;;;;;;;;;19.90;99.90;;;;;;4898444;29;20438;-72
2023/05/09 13:04:38;;;;;;;;;;;19.90;99.90;;;;;;4899638;29;19990;-71
2023/05/09 13:07:07;;;;;;;;;;;20.00;99.90;;;;;;4899075;29;19928;-68
2023/05/09 13:09:33;;;;;;;;;;;20.00;99.90;;;;;;4882666;29;20472;-72
2023/05/09 13:11:59;;;;;;;;;;;20.10;99.90;;;;;;4899144;29;19995;-72
2023/05/09 13:14:25;;;;;;;;;;;20.00;99.90;;;;;;4899075;29;20035;-72
2023/05/09 13:16:51;;;;;;;;;;;20.00;99.90;;;;;;4913810;29;19927;-71
2023/05/09 13:19:16;;;;;;;;;;;20.00;99.90;;;;;;4898493;29;19982;-71
2023/05/09 13:21:42;;;;;;;;;;;20.00;99.90;;;;;;4899074;29;19928;-71
2023/05/09 13:24:08;;;;;;;;;;;20.00;99.90;;;;;;4897549;29;19935;-71
2023/05/09 13:26:33;;;;;;;;;;;20.00;99.90;;;;;;4898119;29;19927;-71
2023/05/09 13:28:59;;;;;;;;;;;19.90;99.90;;;;;;4898992;29;19927;-74
2023/05/09 13:31:24;;;;;;;;;;;19.90;99.90;;;;;;4897380;29;19951;-74
2023/05/09 13:33:50;;;;;;;;;;;19.80;99.90;;;;;;4898774;29;20401;-74
2023/05/09 13:36:16;;;;;;;;;;;19.80;99.90;;;;;;4866315;29;19984;-70
2023/05/09 13:38:44;;;;;;;;;;;19.70;99.90;;;;;;4898852;29;20353;-69
2023/05/09 13:41:10;;;;;;;;;;;19.60;99.90;;;;;;4898350;29;19974;-68
2023/05/09 13:43:36;;;;;;;;;;;19.60;99.90;;;;;;4897471;29;20401;-70
2023/05/09 13:46:01;;;;;;;;;;;19.50;99.90;;;;;;4882064;29;19935;-70
2023/05/09 13:48:27;;;;;;;;;;;19.50;99.90;;;;;;4898322;29;19928;-69
2023/05/09 13:50:53;;;;;;;;;;;19.40;99.90;;;;;;4882093;29;19927;-70
2023/05/09 13:53:18;;;;;;;;;;;19.40;99.90;;;;;;4897174;29;19937;-70
2023/05/09 13:55:45;;;;;;;;;;;19.30;99.90;;;;;;4898534;29;19950;-70
2023/05/09 13:58:11;;;;;;;;;;;19.20;99.90;;;;;;4897012;29;19935;-70
2023/05/09 14:00:36;;;;;;;;;;;19.10;99.90;;;;;;4898152;29;19940;-70
2023/05/09 14:03:02;;;;;;;;;;;19.00;99.90;;;;;;4912747;29;20379;-70
2023/05/09 14:05:30;;;;;;;;;;;18.90;99.90;;;;;;4896627;29;19927;-71
2023/05/09 14:07:55;;;;;;;;;;;18.90;99.90;;;;;;4898138;29;20393;-71
2023/05/09 14:10:21;;;;;;;;;;;18.80;99.90;;;;;;4880338;29;19935;-73
2023/05/09 14:12:47;;;;;;;;;;;18.80;99.90;;;;;;4891809;29;19927;-69